createdAt,value
2018-11-23T05:43:46.165Z,37.40
2018-11-23T05:46:14.730Z,33.67
2018-11-23T05:48:43.669Z,32.03
2018-11-23T05:51:12.666Z,31.10
2018-11-23T05:53:41.398Z,31.77
2018-11-23T05:56:09.772Z,30.73
2018-11-23T05:58:38.156Z,27.70
2018-11-23T06:01:06.771Z,29.03
2018-11-23T06:03:35.157Z,29.13
2018-11-23T06:06:03.839Z,29.00
2018-11-23T06:08:32.241Z,27.47
2018-11-23T06:11:00.913Z,26.73
2018-11-23T06:13:29.907Z,25.97
2018-11-23T06:15:58.492Z,28.03
2018-11-23T06:18:27.613Z,26.73
2018-11-23T06:20:56.023Z,27.37
2018-11-23T06:23:24.466Z,25.47
2018-11-23T06:25:59.492Z,25.03
2018-11-23T06:28:27.934Z,24.23
2018-11-23T06:30:56.552Z,23.87
2018-11-23T06:33:33.365Z,24.80
2018-11-23T06:36:01.779Z,24.63
2018-11-23T06:38:30.614Z,26.60
2018-11-23T06:40:59.457Z,25.10
2018-11-23T06:43:28.231Z,23.33
2018-11-23T06:45:57.436Z,22.53
2018-11-23T06:48:25.822Z,21.37
2018-11-23T06:50:54.765Z,22.95
2018-11-23T06:53:23.215Z,21.63
2018-11-23T06:55:51.597Z,22.20
2018-11-23T06:58:20.062Z,21.87
2018-11-23T07:00:48.475Z,22.20
2018-11-23T07:03:16.882Z,22.47
2018-11-23T07:05:45.656Z,22.07
2018-11-23T07:08:14.064Z,22.97
2018-11-23T07:10:42.713Z,22.70
2018-11-23T07:13:11.194Z,23.47
2018-11-23T07:15:40.272Z,23.43
2018-11-23T07:18:08.777Z,24.07
2018-11-23T07:20:37.171Z,24.27
2018-11-23T07:23:06.133Z,24.87
2018-11-23T07:25:34.561Z,23.93
2018-11-23T07:28:02.955Z,23.80
2018-11-23T07:30:31.756Z,24.07
2018-11-23T07:33:00.196Z,23.07
2018-11-23T07:35:28.813Z,23.13
2018-11-23T07:37:57.559Z,22.57
2018-11-23T07:40:39.484Z,22.97
2018-11-23T07:43:08.280Z,22.77
2018-11-23T07:45:36.694Z,22.20
2018-11-23T07:48:06.282Z,23.23
2018-11-23T07:50:34.664Z,21.93
2018-11-23T07:53:03.181Z,24.07
2018-11-23T07:55:32.752Z,23.63
2018-11-23T07:58:01.555Z,23.07
2018-11-23T08:00:30.162Z,23.43
2018-11-23T08:02:58.519Z,23.70
2018-11-23T08:05:26.909Z,25.03
2018-11-23T08:07:55.291Z,25.67
2018-11-23T08:10:23.239Z,24.87
2018-11-23T08:12:52.239Z,24.13
2018-11-23T08:15:26.751Z,25.03
2018-11-23T08:17:55.557Z,24.33
2018-11-23T08:20:25.206Z,23.03
2018-11-23T08:22:54.160Z,25.03
2018-11-23T08:25:23.570Z,22.50
2018-11-23T08:27:53.647Z,25.67
2018-11-23T08:30:24.529Z,23.90
2018-11-23T08:32:53.296Z,24.93
2018-11-23T08:35:21.750Z,26.70
2018-11-23T08:37:50.517Z,25.87
2018-11-23T08:40:22.307Z,26.40
2018-11-23T08:42:52.229Z,22.20
2018-11-23T08:45:22.548Z,23.67
2018-11-23T08:47:51.117Z,23.63
2018-11-23T08:50:22.370Z,25.13
2018-11-23T08:52:50.782Z,24.97
2018-11-23T08:55:20.317Z,25.00
2018-11-23T08:57:49.247Z,25.03
2018-11-23T09:00:21.345Z,25.73
2018-11-23T09:02:52.464Z,24.17
2018-11-23T09:05:21.428Z,23.87
2018-11-23T09:07:51.365Z,27.17
2018-11-23T09:10:21.475Z,25.90
2018-11-23T09:12:52.703Z,22.47
2018-11-23T09:15:21.434Z,24.03
2018-11-23T09:17:49.830Z,26.97
2018-11-23T09:20:19.281Z,26.03
2018-11-23T09:22:47.642Z,24.77
2018-11-23T09:25:17.848Z,25.30
2018-11-23T09:27:46.273Z,26.80
2018-11-23T09:30:18.561Z,25.83
2018-11-23T09:32:48.077Z,25.20
2018-11-23T09:35:16.799Z,24.67
2018-11-23T09:37:45.544Z,25.73
2018-11-23T09:40:17.499Z,26.87
2018-11-23T09:42:45.873Z,26.13
2018-11-23T09:45:17.131Z,26.73
2018-11-23T09:47:46.889Z,24.77
2018-11-23T09:50:17.631Z,26.47
2018-11-23T09:52:47.309Z,25.43
2018-11-23T09:55:15.836Z,26.17
2018-11-23T09:57:44.426Z,24.13
2018-11-23T10:00:15.542Z,25.90
2018-11-23T10:02:44.874Z,26.30
2018-11-23T10:05:14.287Z,25.50
2018-11-23T10:07:44.598Z,26.10
2018-11-23T10:10:15.854Z,32.83
2018-11-23T10:12:44.853Z,26.90
2018-11-23T10:15:15.080Z,30.27
2018-11-23T10:17:43.669Z,31.47
2018-11-23T10:20:14.346Z,28.40
2018-11-23T10:22:43.073Z,25.70
2018-11-23T10:25:13.081Z,24.93
2018-11-23T10:27:42.288Z,28.00
2018-11-23T10:30:17.100Z,32.77
2018-11-23T10:32:46.297Z,30.40
2018-11-23T10:35:15.052Z,28.17
2018-11-23T10:37:44.583Z,28.40
2018-11-23T10:40:15.850Z,26.40
2018-11-23T10:42:44.739Z,28.17
2018-11-23T10:45:16.954Z,28.07
2018-11-23T10:47:45.994Z,27.40
2018-11-23T10:50:16.648Z,25.83
2018-11-23T10:52:45.615Z,25.33
2018-11-23T10:55:16.417Z,25.23
2018-11-23T10:57:44.890Z,23.40
2018-11-23T11:00:20.733Z,22.80
2018-11-23T11:02:55.862Z,23.73
2018-11-23T11:05:31.313Z,24.70
2018-11-23T11:08:01.606Z,23.00
2018-11-23T11:10:30.054Z,21.30
2018-11-23T11:12:58.681Z,21.50
2018-11-23T11:15:27.252Z,22.13
2018-11-23T11:17:56.116Z,22.33
2018-11-23T11:20:24.531Z,25.00
2018-11-23T11:22:53.093Z,25.03
2018-11-23T11:25:21.567Z,24.47
2018-11-23T11:27:50.275Z,24.57
2018-11-23T11:30:19.575Z,24.60
2018-11-23T11:32:48.835Z,26.03
2018-11-23T11:35:17.443Z,26.87
2018-11-23T11:37:46.424Z,25.60
2018-11-23T11:40:16.774Z,27.57
2018-11-23T11:42:45.932Z,26.23
2018-11-23T11:45:16.141Z,26.70
2018-11-23T11:47:45.922Z,28.80
2018-11-23T11:50:14.930Z,27.53
2018-11-23T11:52:44.676Z,26.20
2018-11-23T11:55:14.868Z,26.53
2018-11-23T11:57:43.922Z,28.57
2018-11-23T12:00:16.689Z,27.60
2018-11-23T12:02:45.089Z,27.83
2018-11-23T12:05:14.554Z,30.47
2018-11-23T12:07:42.962Z,28.60
2018-11-23T12:10:15.541Z,29.70
2018-11-23T12:12:43.976Z,31.07
2018-11-23T12:15:13.219Z,30.17
2018-11-23T12:17:42.416Z,32.57
2018-11-23T12:20:26.721Z,33.67
2018-11-23T12:22:55.608Z,35.33
2018-11-23T12:25:24.420Z,34.27
2018-11-23T12:27:53.471Z,34.33
2018-11-23T12:30:22.972Z,32.43
2018-11-23T12:32:53.307Z,33.30
2018-11-23T12:35:22.722Z,31.77
2018-11-23T12:37:51.513Z,31.50
2018-11-23T12:40:20.962Z,33.20
2018-11-23T12:42:50.094Z,34.03
2018-11-23T12:45:20.453Z,33.80
2018-11-23T12:47:48.832Z,34.03
2018-11-23T12:50:19.082Z,31.57
2018-11-23T12:52:48.584Z,30.50
2018-11-23T12:55:17.673Z,31.80
2018-11-23T12:57:46.220Z,30.73
2018-11-23T13:00:31.696Z,30.10
2018-11-23T13:03:01.759Z,29.37
2018-11-23T13:05:31.334Z,28.97
2018-11-23T13:08:01.184Z,29.77
2018-11-23T13:10:30.233Z,29.90
2018-11-23T13:12:59.590Z,29.33
2018-11-23T13:15:28.002Z,30.20
2018-11-23T13:17:56.896Z,29.87
2018-11-23T13:20:25.946Z,31.73
2018-11-23T13:22:54.341Z,30.10
2018-11-23T13:25:24.527Z,31.10
2018-11-23T13:27:53.210Z,31.73
2018-11-23T13:30:26.024Z,30.50
2018-11-23T13:32:54.446Z,29.20
2018-11-23T13:35:22.890Z,29.10
2018-11-23T13:37:51.949Z,30.67
2018-11-23T13:40:21.781Z,30.00
2018-11-23T13:42:51.488Z,29.87
2018-11-23T13:45:21.804Z,30.33
2018-11-23T13:47:50.685Z,29.77
2018-11-23T13:50:20.690Z,27.47
2018-11-23T13:52:50.306Z,25.83
2018-11-23T13:55:18.896Z,27.23
2018-11-23T13:57:48.186Z,27.10
2018-11-23T14:00:19.926Z,28.23
2018-11-23T14:02:49.258Z,28.10
2018-11-23T14:05:20.094Z,27.47
2018-11-23T14:07:50.048Z,27.53
2018-11-23T14:10:20.228Z,27.70
2018-11-23T14:12:49.116Z,23.77
2018-11-23T14:15:19.444Z,20.43
2018-11-23T14:17:49.673Z,19.50
2018-11-23T14:20:19.034Z,19.03
2018-11-23T14:22:47.449Z,19.07
2018-11-23T14:27:55.845Z,25.90
2018-11-23T14:30:27.129Z,21.87
2018-11-23T14:32:55.997Z,20.97
2018-11-23T14:35:28.277Z,20.60
2018-11-23T14:37:57.762Z,20.73
2018-11-23T14:40:26.221Z,19.17
2018-11-23T14:42:55.563Z,19.60
2018-11-23T14:45:27.901Z,18.10
2018-11-23T14:47:57.555Z,18.90
2018-11-23T14:50:28.969Z,19.73
2018-11-23T14:52:57.985Z,19.43
2018-11-23T14:55:26.977Z,19.07
2018-11-23T14:57:56.386Z,19.10
2018-11-23T15:00:34.272Z,18.80
2018-11-23T15:03:03.790Z,19.00
2018-11-23T15:05:32.222Z,19.67
2018-11-23T15:08:01.586Z,21.43
2018-11-23T15:10:31.705Z,20.97
2018-11-23T15:13:01.713Z,20.53
2018-11-23T15:15:31.894Z,19.87
2018-11-23T15:18:00.902Z,20.83
2018-11-23T15:20:31.318Z,21.27
2018-11-23T15:23:03.898Z,20.20
2018-11-23T15:25:32.469Z,20.27
2018-11-23T15:28:01.373Z,20.00
2018-11-23T15:30:31.890Z,19.17
2018-11-23T15:33:00.807Z,19.50
2018-11-23T15:35:30.854Z,18.13
2018-11-23T15:37:59.462Z,18.77
2018-11-23T15:40:28.917Z,18.83
2018-11-23T15:42:59.384Z,19.77
2018-11-23T15:45:29.559Z,18.80
2018-11-23T15:47:58.650Z,19.03
2018-11-23T15:50:28.909Z,20.17
2018-11-23T15:52:57.673Z,19.83
2018-11-23T15:55:29.331Z,18.67
2018-11-23T15:58:01.676Z,18.20
2018-11-23T16:00:31.925Z,18.50
2018-11-23T16:03:00.827Z,18.70
2018-11-23T16:05:29.575Z,19.50
2018-11-23T16:07:59.840Z,19.30
2018-11-23T16:10:30.083Z,19.30
2018-11-23T16:12:59.900Z,20.27
2018-11-23T16:15:28.842Z,20.20
2018-11-23T16:17:58.159Z,20.90
2018-11-23T16:20:29.435Z,19.20
2018-11-23T16:23:01.439Z,20.17
2018-11-23T16:25:30.242Z,19.47
2018-11-23T16:28:00.734Z,19.27
2018-11-23T16:30:30.760Z,20.10
2018-11-23T16:33:00.713Z,19.23
2018-11-23T16:35:33.065Z,18.37
2018-11-23T16:38:03.629Z,18.57
2018-11-23T16:40:34.159Z,18.47
2018-11-23T16:43:03.251Z,18.83
2018-11-23T16:45:34.417Z,19.13
2018-11-23T16:48:04.420Z,19.00
2018-11-23T16:50:33.078Z,18.47
2018-11-23T16:53:02.162Z,18.57
2018-11-23T16:55:31.153Z,18.70
2018-11-23T16:58:05.082Z,19.83
2018-11-23T17:00:36.250Z,19.23
2018-11-23T17:03:06.774Z,19.97
2018-11-23T17:05:36.846Z,20.13
2018-11-23T17:08:06.985Z,20.17
2018-11-23T17:10:35.601Z,19.63
2018-11-23T17:13:04.298Z,20.77
2018-11-23T17:15:32.942Z,21.43
2018-11-23T17:18:01.368Z,20.03
2018-11-23T17:20:31.497Z,21.13
2018-11-23T17:23:01.256Z,20.97
2018-11-23T17:25:30.915Z,21.23
2018-11-23T17:28:01.580Z,21.77
2018-11-23T17:30:31.530Z,20.13
2018-11-23T17:33:01.699Z,21.10
2018-11-23T17:35:30.413Z,22.10
2018-11-23T17:37:59.080Z,20.60
2018-11-23T17:40:30.428Z,20.60
2018-11-23T17:42:59.210Z,21.47
2018-11-23T17:45:30.386Z,21.17
2018-11-23T17:47:58.957Z,23.23
2018-11-23T17:50:29.058Z,24.87
2018-11-23T17:52:57.712Z,23.80
2018-11-23T17:55:26.388Z,21.83
2018-11-23T17:57:55.745Z,22.13
2018-11-23T18:00:29.597Z,27.30
2018-11-23T18:02:59.480Z,28.87
2018-11-23T18:05:28.759Z,27.00
2018-11-23T18:07:59.518Z,25.13
2018-11-23T18:10:30.728Z,24.53
2018-11-23T18:12:59.728Z,23.13
2018-11-23T18:15:30.873Z,21.37
2018-11-23T18:18:00.590Z,20.40
2018-11-23T18:20:29.773Z,23.30
2018-11-23T18:22:59.709Z,21.37
2018-11-23T18:25:30.237Z,21.03
2018-11-23T18:28:00.853Z,20.73
2018-11-23T18:30:32.461Z,20.37
2018-11-23T18:33:02.531Z,20.47
2018-11-23T18:35:31.489Z,19.70
2018-11-23T18:38:00.103Z,18.90
2018-11-23T18:40:32.341Z,19.23
2018-11-23T18:42:57.471Z,20.83
2018-11-23T18:45:26.507Z,20.97
2018-11-23T18:47:55.196Z,20.60
2018-11-23T18:50:24.124Z,19.80
2018-11-23T18:52:52.978Z,20.73
2018-11-23T18:55:21.740Z,20.50
2018-11-23T18:57:50.146Z,19.63
2018-11-23T19:00:19.259Z,22.77
2018-11-23T19:02:48.063Z,22.83
2018-11-23T19:05:18.425Z,21.77
2018-11-23T19:07:46.849Z,22.67
2018-11-23T19:10:15.845Z,23.13
2018-11-23T19:12:44.747Z,24.03
2018-11-23T19:15:15.201Z,25.80
2018-11-23T19:17:43.710Z,26.23
2018-11-23T19:20:14.651Z,28.23
2018-11-23T19:22:51.983Z,28.37
2018-11-23T19:25:20.946Z,29.13
2018-11-23T19:27:49.911Z,31.07
2018-11-23T19:30:28.675Z,28.60
2018-11-23T19:32:52.606Z,30.47
2018-11-23T19:35:21.661Z,32.20
2018-11-23T19:37:50.098Z,30.90
2018-11-23T19:40:18.496Z,31.83
2018-11-23T19:42:47.174Z,33.87
2018-11-23T19:45:16.783Z,34.30
2018-11-23T19:47:45.448Z,35.70
2018-11-23T19:50:15.025Z,35.33
2018-11-23T19:52:43.711Z,35.70
2018-11-23T19:55:13.690Z,35.87
2018-11-23T19:57:42.127Z,36.73
2018-11-23T20:00:16.392Z,30.87
2018-11-23T20:02:44.952Z,30.50
2018-11-23T20:05:13.617Z,32.00
2018-11-23T20:07:42.324Z,29.03
2018-11-23T20:10:12.641Z,28.30
2018-11-23T20:12:41.166Z,30.70
2018-11-23T20:15:15.402Z,33.03
2018-11-23T20:17:44.204Z,35.77
2018-11-23T20:20:13.927Z,32.83
2018-11-23T20:22:42.956Z,32.10
2018-11-23T20:25:12.816Z,31.17
2018-11-23T20:27:41.564Z,34.60
2018-11-23T20:30:17.998Z,34.40
2018-11-23T20:32:46.635Z,33.47
2018-11-23T20:35:18.385Z,32.60
2018-11-23T20:37:46.798Z,33.30
2018-11-23T20:40:19.812Z,32.23
2018-11-23T20:42:48.754Z,31.77
2018-11-23T20:45:17.247Z,31.97
2018-11-23T20:47:45.816Z,34.53
2018-11-23T20:50:15.898Z,34.17
2018-11-23T20:52:44.418Z,33.10
2018-11-23T20:55:14.185Z,32.80
2018-11-23T20:57:42.721Z,33.17
2018-11-23T21:00:18.529Z,32.43
2018-11-23T21:02:48.706Z,32.33
2018-11-23T21:05:18.256Z,30.93
2018-11-23T21:07:46.702Z,32.27
2018-11-23T21:10:20.400Z,29.70
2018-11-23T21:12:45.647Z,30.50
2018-11-23T21:15:25.011Z,30.97
2018-11-23T21:17:53.476Z,30.00
2018-11-23T21:20:22.073Z,30.27
2018-11-23T21:22:51.102Z,31.33
2018-11-23T21:25:19.774Z,30.67
2018-11-23T21:27:48.521Z,30.67
2018-11-23T21:30:19.301Z,30.03
2018-11-23T21:32:48.122Z,30.23
2018-11-23T21:35:17.525Z,28.77
2018-11-23T21:37:45.973Z,26.80
2018-11-23T21:40:16.170Z,28.13
2018-11-23T21:42:45.182Z,26.97
2018-11-23T21:45:15.672Z,29.33
2018-11-23T21:47:44.730Z,27.43
2018-11-23T21:50:25.131Z,28.40
2018-11-23T21:52:47.310Z,27.70
2018-11-23T21:55:18.989Z,28.20
2018-11-23T21:57:47.524Z,27.87
2018-11-23T22:00:16.768Z,27.43
2018-11-23T22:02:45.364Z,26.97
2018-11-23T22:05:14.080Z,25.80
2018-11-23T22:07:43.415Z,25.63
2018-11-23T22:10:17.277Z,24.13
2018-11-23T22:12:45.963Z,22.73
2018-11-23T22:15:18.093Z,25.00
2018-11-23T22:17:47.443Z,25.57
2018-11-23T22:20:18.022Z,24.27
2018-11-23T22:22:46.417Z,25.73
2018-11-23T22:25:16.026Z,25.10
2018-11-23T22:27:44.590Z,25.57
2018-11-23T22:30:19.436Z,24.03
